createdAt,value
2022-11-12T00:01:37.720Z,13.77
2022-11-12T00:04:22.555Z,10.82
2022-11-12T00:07:07.366Z,11.77
2022-11-12T00:09:52.263Z,13.02
2022-11-12T00:12:37.288Z,13.93
2022-11-12T00:15:22.426Z,12.45
2022-11-12T00:18:07.933Z,13.00
2022-11-12T00:20:52.750Z,10.80
2022-11-12T00:23:37.687Z,13.23
2022-11-12T00:26:22.625Z,10.75
2022-11-12T00:29:07.623Z,10.50
2022-11-12T00:31:52.482Z,9.10
2022-11-12T00:34:37.404Z,11.10
2022-11-12T00:37:23.172Z,10.55
2022-11-12T00:40:09.004Z,10.05
2022-11-12T00:42:54.102Z,8.10
2022-11-12T00:45:38.913Z,9.00
2022-11-12T00:48:23.962Z,10.40
2022-11-12T00:51:09.487Z,8.77
2022-11-12T00:53:54.653Z,7.78
2022-11-12T00:56:39.648Z,6.53
2022-11-12T00:59:24.539Z,8.02
2022-11-12T01:02:09.431Z,6.82
2022-11-12T01:04:54.285Z,7.60
2022-11-12T01:07:39.279Z,12.05
2022-11-12T01:10:24.428Z,7.93
2022-11-12T01:13:09.472Z,6.82
2022-11-12T01:15:54.500Z,7.90
2022-11-12T01:18:39.965Z,9.73
2022-11-12T01:21:28.039Z,7.47
2022-11-12T01:24:13.322Z,7.90
2022-11-12T01:26:58.164Z,7.13
2022-11-12T01:29:43.344Z,6.88
2022-11-12T01:32:28.330Z,7.30
2022-11-12T01:35:13.536Z,9.85
2022-11-12T01:37:58.322Z,6.78
2022-11-12T01:40:43.202Z,8.88
2022-11-12T01:43:28.040Z,7.53
2022-11-12T01:46:28.810Z,6.00
2022-11-12T01:49:39.310Z,7.55
2022-11-12T01:52:30.751Z,7.20
2022-11-12T01:55:26.288Z,7.43
2022-11-12T01:58:14.584Z,6.72
2022-11-12T02:01:02.132Z,7.78
2022-11-12T02:03:47.177Z,7.85
2022-11-12T02:06:34.153Z,7.75
2022-11-12T02:09:19.548Z,9.55
2022-11-12T02:12:05.531Z,8.35
2022-11-12T02:14:50.483Z,8.73
2022-11-12T02:17:35.530Z,6.72
2022-11-12T02:20:20.812Z,6.78
2022-11-12T02:23:07.705Z,8.05
2022-11-12T02:25:52.509Z,7.45
2022-11-12T02:28:37.739Z,7.32
2022-11-12T02:31:22.962Z,6.55
2022-11-12T02:34:07.891Z,7.18
2022-11-12T02:36:52.951Z,7.25
2022-11-12T02:39:37.991Z,7.10
2022-11-12T02:42:22.984Z,7.97
2022-11-12T03:01:37.785Z,7.32
2022-11-12T03:04:22.689Z,7.75
2022-11-12T03:07:07.640Z,8.57
2022-11-12T03:09:52.423Z,9.50
2022-11-12T03:12:37.278Z,13.40
2022-11-12T03:15:22.163Z,10.15
2022-11-12T03:18:07.665Z,11.27
2022-11-12T03:20:53.084Z,9.85
2022-11-12T03:23:38.287Z,10.20
2022-11-12T03:26:23.176Z,11.02
2022-11-12T03:29:08.025Z,9.02
2022-11-12T03:31:52.973Z,10.43
2022-11-12T03:34:37.766Z,10.77
2022-11-12T03:37:22.783Z,9.75
2022-11-12T03:40:08.110Z,9.63
2022-11-12T03:42:53.801Z,8.57
2022-11-12T03:45:38.945Z,7.43
2022-11-12T03:48:24.459Z,8.18
2022-11-12T03:51:12.139Z,8.45
2022-11-12T03:53:57.084Z,10.18
2022-11-12T03:56:42.003Z,7.70
2022-11-12T03:59:26.874Z,8.02
2022-11-12T04:02:14.324Z,7.78
2022-11-12T04:05:18.177Z,7.72
2022-11-12T04:08:26.443Z,8.50
2022-11-12T04:11:15.478Z,8.32
2022-11-12T04:14:00.709Z,8.10
2022-11-12T04:17:04.487Z,8.05
2022-11-12T04:20:08.160Z,7.30
2022-11-12T04:22:53.369Z,7.32
2022-11-12T04:25:58.438Z,6.35
2022-11-12T04:29:04.079Z,7.25
2022-11-12T04:31:49.409Z,7.38
2022-11-12T04:34:34.743Z,8.02
2022-11-12T04:37:23.477Z,8.52
2022-11-12T04:40:29.558Z,7.30
2022-11-12T04:43:35.161Z,8.27
2022-11-12T04:46:20.378Z,7.72
2022-11-12T04:49:05.407Z,7.43
2022-11-12T04:52:05.675Z,6.13
2022-11-12T04:54:51.313Z,7.32
2022-11-12T04:57:37.613Z,7.15
2022-11-12T05:00:23.084Z,7.93
2022-11-12T05:03:08.289Z,6.80
2022-11-12T05:05:53.511Z,6.75
2022-11-12T05:08:38.305Z,6.80
2022-11-12T05:11:23.359Z,6.70
2022-11-12T05:14:08.563Z,5.93
2022-11-12T05:16:53.424Z,6.20
2022-11-12T05:19:38.535Z,6.75
2022-11-12T05:22:42.656Z,7.60
2022-11-12T05:25:28.185Z,6.72
2022-11-12T05:28:13.280Z,6.45
2022-11-12T05:30:58.265Z,7.55
2022-11-12T05:33:43.427Z,8.00
2022-11-12T05:36:28.261Z,8.43
2022-11-12T05:39:13.180Z,8.32
2022-11-12T05:42:12.339Z,10.52
2022-11-12T05:44:58.142Z,9.95
2022-11-12T05:47:42.931Z,8.98
2022-11-12T05:50:34.956Z,9.60
2022-11-12T05:53:24.950Z,12.00
2022-11-12T05:56:11.237Z,10.18
2022-11-12T05:58:56.464Z,9.05
2022-11-12T06:01:44.339Z,12.27
2022-11-12T06:04:29.320Z,10.48
2022-11-12T06:07:14.266Z,9.25
2022-11-12T06:09:59.083Z,8.13
2022-11-12T06:12:44.013Z,8.93
2022-11-12T06:15:29.163Z,8.30
2022-11-12T06:18:14.557Z,8.93
2022-11-12T06:21:24.806Z,7.70
2022-11-12T06:24:10.116Z,7.72
2022-11-12T06:26:55.162Z,8.27
2022-11-12T06:29:40.414Z,8.02
2022-11-12T06:32:25.531Z,8.70
2022-11-12T06:35:10.431Z,8.68
2022-11-12T06:37:55.343Z,7.65
2022-11-12T06:40:40.303Z,9.02
2022-11-12T06:43:27.505Z,7.85
2022-11-12T06:46:17.374Z,8.60
2022-11-12T06:49:02.343Z,8.18
2022-11-12T06:51:51.120Z,8.48
2022-11-12T06:54:36.324Z,9.35
2022-11-12T06:57:21.332Z,10.60
2022-11-12T07:00:07.079Z,10.20
2022-11-12T07:02:52.092Z,10.25
2022-11-12T07:05:40.458Z,9.80
2022-11-12T07:08:25.737Z,7.95
2022-11-12T07:11:11.421Z,10.02
2022-11-12T07:13:56.743Z,9.40
2022-11-12T07:16:41.950Z,10.75
2022-11-12T07:19:27.032Z,11.90
2022-11-12T07:22:12.079Z,9.52
2022-11-12T07:24:57.111Z,8.82
2022-11-12T07:27:42.014Z,9.77
2022-11-12T07:30:26.847Z,9.25
2022-11-12T07:33:11.762Z,9.85
2022-11-12T07:36:01.303Z,10.88
2022-11-12T07:38:47.171Z,10.30
2022-11-12T07:41:32.399Z,11.30
2022-11-12T07:44:17.412Z,10.00
2022-11-12T07:47:02.340Z,10.45
2022-11-12T07:49:47.214Z,10.70
2022-11-12T07:52:33.088Z,11.80
2022-11-12T07:55:17.867Z,10.25
2022-11-12T07:58:02.672Z,10.57
2022-11-12T08:00:47.563Z,10.43
2022-11-12T08:03:32.432Z,10.90
2022-11-12T08:06:17.586Z,8.32
2022-11-12T08:09:04.785Z,9.50
2022-11-12T08:11:49.981Z,7.30
2022-11-12T08:14:34.750Z,7.90
2022-11-12T08:17:19.681Z,6.65
2022-11-12T08:20:04.822Z,6.82
2022-11-12T08:22:49.872Z,8.23
2022-11-12T08:25:36.166Z,6.03
2022-11-12T08:28:21.040Z,6.50
2022-11-12T08:31:14.838Z,8.10
2022-11-12T08:34:11.804Z,6.25
2022-11-12T08:36:56.954Z,6.20
2022-11-12T08:39:42.571Z,6.18
2022-11-12T08:42:27.847Z,7.22
2022-11-12T08:45:13.075Z,6.63
2022-11-12T08:48:16.495Z,5.40
2022-11-12T08:51:03.378Z,6.70
2022-11-12T08:53:48.210Z,4.60
2022-11-12T08:56:33.942Z,4.72
2022-11-12T08:59:19.116Z,7.05
2022-11-12T09:02:04.042Z,4.85
2022-11-12T09:04:48.893Z,6.07
2022-11-12T09:07:49.295Z,5.15
2022-11-12T09:10:35.690Z,5.15
2022-11-12T09:13:21.058Z,6.63
2022-11-12T09:16:07.454Z,4.30
2022-11-12T09:18:52.519Z,6.13
2022-11-12T09:21:37.389Z,5.18
2022-11-12T09:24:22.297Z,5.15
2022-11-12T09:27:07.264Z,4.20
2022-11-12T09:29:52.068Z,5.32
2022-11-12T09:32:37.266Z,5.32
2022-11-12T09:35:22.584Z,5.35
2022-11-12T09:38:07.416Z,5.47
2022-11-12T09:40:52.306Z,5.03
2022-11-12T09:43:48.456Z,5.38
2022-11-12T09:46:55.058Z,5.35
2022-11-12T09:50:10.916Z,5.90
2022-11-12T09:53:04.471Z,4.82
2022-11-12T09:55:50.209Z,5.18
2022-11-12T09:58:36.892Z,4.22
2022-11-12T10:01:38.832Z,3.97
2022-11-12T10:04:51.973Z,4.18
2022-11-12T10:07:48.978Z,4.43
2022-11-12T10:10:46.784Z,2.85
2022-11-12T10:13:45.991Z,4.93
2022-11-12T10:17:25.153Z,4.55
2022-11-12T10:20:29.060Z,3.30
2022-11-12T10:23:19.066Z,4.55
2022-11-12T10:26:13.032Z,4.20
2022-11-12T10:29:13.898Z,3.42
2022-11-12T10:32:01.720Z,4.27
2022-11-12T10:34:46.953Z,3.95
2022-11-12T10:37:46.948Z,3.10
2022-11-12T10:40:34.430Z,3.47
2022-11-12T10:43:20.967Z,3.45
2022-11-12T10:46:36.376Z,3.85
2022-11-12T10:49:24.316Z,4.20
2022-11-12T10:52:24.019Z,3.60
2022-11-12T10:55:24.831Z,4.03
2022-11-12T10:58:09.970Z,3.13
2022-11-12T11:01:12.895Z,4.20
2022-11-12T11:03:58.330Z,4.13
2022-11-12T11:06:43.880Z,6.88
2022-11-12T11:09:28.732Z,8.60
2022-11-12T11:12:27.499Z,8.13
2022-11-12T11:15:15.667Z,7.18
2022-11-12T11:18:00.919Z,7.82
2022-11-12T11:20:53.149Z,8.40
2022-11-12T11:23:55.956Z,7.57
2022-11-12T11:26:59.819Z,7.50
2022-11-12T11:30:03.171Z,7.57
2022-11-12T11:33:25.927Z,7.13
2022-11-12T11:36:21.964Z,7.25
2022-11-12T11:39:33.292Z,10.00
2022-11-12T11:42:47.712Z,8.57
2022-11-12T11:45:44.964Z,8.20
2022-11-12T11:48:54.808Z,8.77
2022-11-12T11:51:55.683Z,9.13
2022-11-12T11:54:53.051Z,8.50
2022-11-12T11:57:48.787Z,8.13
2022-11-12T12:01:06.337Z,9.27
2022-11-12T12:04:18.752Z,9.25
2022-11-12T12:07:12.533Z,8.52
2022-11-12T12:10:09.336Z,9.18
2022-11-12T12:13:08.074Z,7.80
2022-11-12T12:16:08.432Z,9.52
2022-11-12T12:19:02.649Z,10.20
2022-11-12T12:21:50.788Z,10.93
2022-11-12T12:25:15.555Z,10.95
2022-11-12T12:28:17.651Z,12.55
2022-11-12T12:34:02.722Z,9.02
2022-11-12T12:36:53.759Z,9.23
2022-11-12T12:39:58.445Z,9.23
2022-11-12T12:42:50.987Z,11.75
2022-11-12T12:45:44.777Z,8.15
2022-11-12T12:48:34.196Z,8.55
2022-11-12T12:51:19.669Z,12.93
2022-11-12T12:54:04.618Z,9.15
2022-11-12T12:56:49.684Z,11.52
2022-11-12T12:59:34.961Z,9.73
2022-11-12T13:02:23.199Z,9.65
2022-11-12T13:05:24.709Z,10.60
2022-11-12T13:08:13.988Z,12.48
2022-11-12T13:10:59.554Z,7.85
2022-11-12T13:13:44.653Z,9.25
2022-11-12T13:16:51.384Z,10.30
2022-11-12T13:19:43.945Z,10.88
2022-11-12T13:22:38.132Z,10.05
2022-11-12T13:25:29.353Z,10.10
2022-11-12T13:28:14.580Z,9.70
2022-11-12T13:31:01.795Z,8.88
2022-11-12T13:33:47.666Z,14.32
2022-11-12T13:36:32.893Z,11.02
2022-11-12T13:39:20.130Z,15.75
2022-11-12T13:42:36.505Z,11.50
2022-11-12T13:45:25.218Z,11.55
2022-11-12T13:48:16.913Z,8.85
2022-11-12T13:51:06.713Z,11.35
2022-11-12T13:53:51.552Z,8.20
2022-11-12T13:56:37.554Z,12.23
2022-11-12T13:59:25.372Z,9.70
2022-11-12T14:02:23.112Z,12.55
2022-11-12T14:05:18.653Z,9.77
2022-11-12T14:08:29.641Z,9.55
2022-11-12T14:11:38.359Z,8.07
2022-11-12T14:14:57.292Z,9.02
2022-11-12T14:17:57.240Z,9.13
2022-11-12T14:20:42.839Z,11.48
2022-11-12T14:23:28.655Z,9.73
2022-11-12T14:26:33.479Z,8.35
2022-11-12T14:29:19.434Z,10.02
2022-11-12T14:32:08.732Z,9.90
2022-11-12T14:34:53.749Z,9.07
2022-11-12T14:37:43.361Z,11.65
2022-11-12T14:40:31.870Z,10.85
2022-11-12T14:43:37.626Z,10.55
2022-11-12T14:46:33.762Z,10.45
2022-11-12T14:49:43.967Z,12.70
2022-11-12T14:52:36.986Z,11.30
2022-11-12T14:55:28.751Z,12.70
2022-11-12T15:01:44.919Z,13.25
2022-11-12T15:04:25.721Z,10.15
2022-11-12T15:07:27.602Z,14.48
2022-11-12T15:10:42.725Z,11.65
2022-11-12T15:13:28.541Z,10.60
2022-11-12T15:16:30.119Z,11.13
2022-11-12T15:19:26.414Z,13.13
2022-11-12T15:22:20.795Z,12.43
2022-11-12T15:25:22.727Z,11.38
2022-11-12T15:31:08.348Z,11.80
2022-11-12T15:33:53.574Z,11.20
2022-11-12T15:36:41.349Z,10.40
2022-11-12T15:39:28.676Z,11.93
2022-11-12T15:42:26.625Z,12.98
2022-11-12T15:45:19.845Z,19.50
2022-11-12T15:48:05.111Z,12.30
2022-11-12T15:50:50.435Z,15.15
2022-11-12T15:53:35.497Z,13.98
2022-11-12T15:56:23.426Z,14.95
2022-11-12T15:59:14.671Z,15.65
2022-11-12T16:01:59.636Z,14.77
2022-11-12T16:04:44.504Z,13.98
2022-11-12T16:07:29.483Z,15.50
2022-11-12T16:10:16.880Z,15.30
2022-11-12T16:13:03.468Z,15.73
2022-11-12T16:15:51.462Z,15.82
2022-11-12T16:18:36.331Z,14.88
2022-11-12T16:21:21.275Z,15.32
2022-11-12T16:24:06.710Z,16.83
2022-11-12T16:26:52.227Z,15.00
2022-11-12T16:29:37.027Z,15.10
2022-11-12T16:32:22.031Z,16.77
2022-11-12T16:35:07.445Z,19.55
2022-11-12T16:37:55.575Z,17.55
2022-11-12T16:40:41.281Z,15.40
2022-11-12T16:43:26.625Z,16.35
2022-11-12T16:46:24.852Z,16.77
2022-11-12T16:49:13.600Z,18.20
2022-11-12T16:51:59.336Z,19.55
2022-11-12T16:54:44.527Z,18.17
2022-11-12T16:57:29.510Z,22.35
2022-11-12T17:00:17.481Z,16.60
2022-11-12T17:03:02.581Z,18.40
2022-11-12T17:05:52.608Z,19.55
2022-11-12T17:08:37.752Z,15.60
2022-11-12T17:11:23.211Z,18.00
2022-11-12T17:14:08.702Z,15.32
2022-11-12T17:16:53.650Z,20.05
2022-11-12T17:19:38.933Z,20.33
2022-11-12T17:22:24.010Z,19.17
2022-11-12T17:25:09.325Z,20.42
2022-11-12T17:27:54.417Z,17.95
2022-11-12T17:30:39.743Z,19.33
2022-11-12T17:33:25.080Z,22.95
2022-11-12T17:36:13.372Z,25.92
2022-11-12T17:39:00.116Z,25.58
2022-11-12T17:41:45.732Z,30.83
2022-11-12T17:44:31.008Z,31.92
2022-11-12T17:47:16.062Z,35.50
2022-11-12T17:50:00.948Z,29.13
2022-11-12T17:52:45.944Z,27.63
2022-11-12T17:55:30.691Z,21.85
2022-11-12T17:58:15.793Z,21.13
2022-11-12T18:01:06.730Z,25.98
2022-11-12T18:03:53.439Z,27.85
2022-11-12T18:06:38.540Z,25.20
2022-11-12T18:09:23.919Z,24.42
2022-11-12T18:12:09.267Z,27.20
2022-11-12T18:14:54.365Z,31.05
2022-11-12T18:17:39.341Z,33.55
2022-11-12T18:20:24.903Z,26.90
2022-11-12T18:23:09.902Z,25.08
2022-11-12T18:25:55.212Z,26.33
2022-11-12T18:28:43.332Z,24.60
2022-11-12T18:31:28.623Z,21.38
2022-11-12T18:34:15.018Z,24.88
2022-11-12T18:36:59.988Z,21.58
2022-11-12T18:39:44.945Z,21.45
2022-11-12T18:42:29.968Z,22.67
2022-11-12T18:45:14.918Z,25.73
2022-11-12T18:47:59.906Z,26.67
2022-11-12T18:50:44.710Z,25.02
2022-11-12T18:53:31.467Z,28.25
2022-11-12T18:56:18.777Z,25.17
2022-11-12T18:59:04.737Z,24.77
2022-11-12T19:01:50.057Z,26.00
2022-11-12T19:04:35.136Z,27.27
2022-11-12T19:07:20.423Z,24.08
2022-11-12T19:10:14.785Z,27.75
2022-11-12T19:13:03.758Z,27.65
2022-11-12T19:15:48.704Z,28.45
2022-11-12T19:18:34.472Z,29.88
2022-11-12T19:21:22.200Z,30.30
2022-11-12T19:24:07.597Z,30.23
2022-11-12T19:26:52.782Z,28.50
2022-11-12T19:29:37.974Z,29.10
2022-11-12T19:32:22.748Z,37.33
2022-11-12T19:35:08.139Z,35.72
2022-11-12T19:37:52.907Z,37.80
2022-11-12T19:40:38.027Z,33.47
2022-11-12T19:43:24.489Z,27.65
2022-11-12T19:46:10.701Z,23.67
2022-11-12T19:48:55.904Z,25.02
2022-11-12T19:51:40.738Z,30.25
2022-11-12T19:54:26.260Z,33.83
2022-11-12T19:57:11.126Z,41.53
2022-11-12T19:59:56.043Z,27.10
2022-11-12T20:02:40.987Z,33.53
2022-11-12T20:05:26.004Z,27.83
2022-11-12T20:08:11.218Z,30.52
2022-11-12T20:10:56.368Z,31.80
2022-11-12T20:13:41.518Z,31.00
2022-11-12T20:16:26.441Z,28.60
2022-11-12T20:19:11.430Z,25.88
2022-11-12T20:21:56.601Z,29.08
2022-11-12T20:24:41.501Z,25.85
2022-11-12T20:27:26.518Z,25.50
2022-11-12T20:30:12.045Z,30.02
2022-11-12T20:32:57.022Z,26.55
2022-11-12T20:35:42.196Z,37.70
2022-11-12T20:38:28.030Z,25.48
2022-11-12T20:41:16.384Z,26.48
2022-11-12T20:44:02.503Z,26.73
2022-11-12T20:46:47.379Z,31.55
2022-11-12T20:49:32.418Z,28.75
2022-11-12T20:52:17.453Z,29.27
2022-11-12T20:55:02.580Z,25.90
2022-11-12T20:57:47.733Z,28.83
2022-11-12T21:00:32.785Z,28.90
2022-11-12T21:03:17.885Z,29.70
2022-11-12T21:06:04.657Z,28.15
2022-11-12T21:08:50.431Z,25.63
2022-11-12T21:11:35.587Z,30.00
2022-11-12T21:14:20.539Z,28.48
2022-11-12T21:17:05.350Z,23.35
2022-11-12T21:19:50.371Z,29.80
2022-11-12T21:22:35.204Z,24.20
2022-11-12T21:25:20.109Z,26.55
2022-11-12T21:28:06.070Z,24.15
2022-11-12T21:30:52.326Z,26.60
2022-11-12T21:33:37.684Z,25.00
2022-11-12T21:36:22.939Z,28.25
2022-11-12T21:39:10.000Z,23.15
2022-11-12T21:41:54.963Z,25.42
2022-11-12T21:44:39.818Z,26.13
2022-11-12T21:47:25.217Z,20.10
2022-11-12T21:50:10.200Z,23.95
2022-11-12T21:52:58.388Z,17.92
2022-11-12T21:55:43.426Z,24.17
2022-11-12T21:58:29.622Z,20.65
2022-11-12T22:01:20.093Z,21.15
2022-11-12T22:04:07.482Z,19.15
2022-11-12T22:06:52.722Z,17.88
2022-11-12T22:09:37.903Z,21.73
2022-11-12T22:12:23.080Z,18.13
2022-11-12T22:15:08.315Z,20.08
2022-11-12T22:17:53.329Z,20.45
2022-11-12T22:20:38.591Z,20.67
2022-11-12T22:23:23.598Z,23.75
2022-11-12T22:26:14.277Z,21.30
2022-11-12T22:29:00.338Z,21.52
2022-11-12T22:31:45.319Z,22.48
2022-11-12T22:34:30.248Z,22.73
2022-11-12T22:37:15.090Z,23.50
2022-11-12T22:39:59.939Z,25.83
2022-11-12T22:42:44.676Z,26.08
2022-11-12T22:45:29.818Z,21.83
2022-11-12T22:48:14.966Z,23.08
2022-11-12T22:51:06.230Z,23.13
2022-11-12T22:54:00.380Z,26.27
2022-11-12T22:56:45.524Z,30.63
2022-11-12T22:59:30.696Z,25.48
2022-11-12T23:02:15.487Z,24.50
2022-11-12T23:05:00.405Z,23.90
2022-11-12T23:07:45.272Z,22.60
2022-11-12T23:10:31.840Z,24.85
2022-11-12T23:13:16.911Z,21.73
2022-11-12T23:16:05.745Z,22.50
2022-11-12T23:18:52.751Z,25.33
2022-11-12T23:21:37.941Z,21.15
2022-11-12T23:24:22.762Z,18.92
2022-11-12T23:27:07.663Z,21.92
2022-11-12T23:29:52.541Z,22.33
2022-11-12T23:32:37.492Z,23.58
2022-11-12T23:35:22.446Z,20.42
2022-11-12T23:38:07.416Z,22.35
2022-11-12T23:40:56.050Z,21.65
2022-11-12T23:43:41.269Z,22.00
2022-11-12T23:46:26.806Z,18.17
2022-11-12T23:49:12.050Z,17.73
2022-11-12T23:51:56.911Z,18.73
2022-11-12T23:54:41.832Z,22.02
2022-11-12T23:57:26.779Z,22.25
